Time;durP1;ratioP1;P1;durP2;ratioP2;P2;SDS_P1;SDS_P2;PMS_P1;PMS_P2;Temp;Humidity;BMP_temperature;BMP_pressure;BME280_temperature;BME280_humidity;BME280_pressure;Samples;Min_cycle;Max_cycle;Signal;HPM_P1;HPM_P2
2022/05/17 00:00:49;;;;;;;5.47;3.00;;;17.00;97.70;;;;;;5044851;28;20044;-40
2022/05/17 00:03:15;;;;;;;7.53;3.53;;;16.90;97.70;;;;;;5045511;28;20473;-40
2022/05/17 00:05:41;;;;;;;5.55;3.10;;;16.90;97.80;;;;;;5045027;28;20061;-40
2022/05/17 00:08:08;;;;;;;5.10;3.17;;;16.90;97.80;;;;;;5044366;28;20447;-40
2022/05/17 00:10:33;;;;;;;5.57;2.90;;;16.80;97.90;;;;;;5044977;28;20032;-41
2022/05/17 00:12:59;;;;;;;7.63;3.50;;;16.80;98.00;;;;;;5045343;28;20040;-40
2022/05/17 00:15:24;;;;;;;7.43;3.15;;;16.80;98.00;;;;;;5047536;28;20084;-40
2022/05/17 00:17:52;;;;;;;6.28;3.58;;;16.70;98.10;;;;;;5049231;28;20242;-40
2022/05/17 00:20:18;;;;;;;4.63;2.80;;;16.70;98.10;;;;;;5048297;28;20159;-41
2022/05/17 00:22:44;;;;;;;7.25;3.33;;;16.70;98.20;;;;;;5048022;28;20493;-41
2022/05/17 00:25:11;;;;;;;6.30;3.15;;;16.60;98.20;;;;;;5048297;28;20120;-40
2022/05/17 00:27:37;;;;;;;8.50;3.47;;;16.60;98.30;;;;;;5047726;28;20013;-40
2022/05/17 00:30:05;;;;;;;7.93;3.30;;;16.60;98.40;;;;;;5048027;28;20020;-39
2022/05/17 00:32:30;;;;;;;6.07;3.40;;;16.50;98.40;;;;;;5048385;28;20138;-39
2022/05/17 00:34:56;;;;;;;6.10;3.35;;;16.50;98.50;;;;;;5048118;28;20023;-39
2022/05/17 00:37:22;;;;;;;8.18;3.70;;;16.60;98.50;;;;;;5048285;28;20380;-40
2022/05/17 00:39:47;;;;;;;8.13;3.47;;;16.70;98.60;;;;;;5047660;28;20013;-40
2022/05/17 00:42:13;;;;;;;8.02;3.50;;;16.70;98.60;;;;;;5047239;28;20122;-39
2022/05/17 00:44:45;;;;;;;6.63;3.50;;;16.80;98.60;;;;;;5048209;28;20063;-41
2022/05/17 00:47:24;;;;;;;5.50;3.13;;;16.80;98.50;;;;;;5048414;28;20439;-41
2022/05/17 00:50:07;;;;;;;7.80;3.17;;;16.80;98.50;;;;;;5047751;28;20021;-42
2022/05/17 00:52:50;;;;;;;7.47;3.28;;;16.80;98.50;;;;;;5047491;28;20120;-41
2022/05/17 00:55:30;;;;;;;6.68;3.53;;;16.80;98.60;;;;;;5047508;28;20091;-40
2022/05/17 00:58:17;;;;;;;6.75;3.20;;;16.70;98.60;;;;;;5047479;28;20029;-41
2022/05/17 01:01:04;;;;;;;5.30;3.28;;;16.70;99.00;;;;;;5047414;28;20111;-42
2022/05/17 01:03:41;;;;;;;8.20;3.28;;;16.70;98.80;;;;;;5046774;28;20121;-41
2022/05/17 01:06:07;;;;;;;6.93;3.30;;;16.70;98.80;;;;;;5047662;28;20021;-41
2022/05/17 01:08:32;;;;;;;5.78;3.10;;;16.60;98.90;;;;;;5047358;28;20033;-41
2022/05/17 01:10:58;;;;;;;6.72;3.40;;;16.60;98.90;;;;;;5046940;28;20463;-43
2022/05/17 01:16:09;;;;;;;5.25;3.15;;;16.60;99.10;;;;;;5035838;28;20117;-40
2022/05/17 01:18:40;;;;;;;7.07;3.10;;;16.50;99.10;;;;;;5046372;28;20480;-41
2022/05/17 01:21:06;;;;;;;5.82;3.08;;;16.50;99.20;;;;;;5047469;28;20071;-40
2022/05/17 01:23:31;;;;;;;7.25;3.20;;;16.50;99.20;;;;;;5047505;28;20061;-40
2022/05/17 01:25:57;;;;;;;4.63;3.20;;;16.40;99.30;;;;;;5046286;28;20047;-40
2022/05/17 01:28:27;;;;;;;5.95;3.30;;;16.40;99.30;;;;;;5047476;28;20017;-39
2022/05/17 01:30:54;;;;;;;6.97;3.35;;;16.40;99.40;;;;;;5047919;28;20025;-39
2022/05/17 01:33:22;;;;;;;8.88;3.65;;;16.50;99.40;;;;;;5046351;28;20310;-40
2022/05/17 01:35:48;;;;;;;5.75;3.08;;;16.50;99.40;;;;;;5048028;28;20029;-40
2022/05/17 01:38:14;;;;;;;9.57;3.90;;;16.50;99.40;;;;;;5046448;28;20024;-40
2022/05/17 01:40:40;;;;;;;6.47;3.70;;;16.50;99.50;;;;;;5046822;28;20111;-39
2022/05/17 01:43:07;;;;;;;6.18;3.20;;;16.60;99.50;;;;;;5047491;28;20084;-39
2022/05/17 01:45:32;;;;;;;8.13;3.88;;;16.60;99.50;;;;;;5045979;28;20032;-40
2022/05/17 01:47:58;;;;;;;7.97;3.55;;;16.60;99.50;;;;;;5047370;28;20814;-41
2022/05/17 01:50:24;;;;;;;7.70;3.40;;;16.60;99.70;;;;;;5047328;28;20124;-41
2022/05/17 01:52:49;;;;;;;6.55;3.40;;;16.70;99.50;;;;;;5046009;28;20491;-41
2022/05/17 01:55:15;;;;;;;6.90;3.47;;;16.60;99.60;;;;;;5046829;28;20032;-40
2022/05/17 01:57:41;;;;;;;8.57;3.20;;;16.70;99.60;;;;;;5046624;28;20043;-39
2022/05/17 02:00:10;;;;;;;6.75;3.90;;;16.60;99.60;;;;;;5046052;28;20041;-39
2022/05/17 02:02:36;;;;;;;5.07;3.85;;;16.60;99.70;;;;;;5046285;28;20029;-40
2022/05/17 02:05:03;;;;;;;5.55;3.67;;;16.50;99.90;;;;;;5046837;28;20025;-40
2022/05/17 02:07:29;;;;;;;6.88;4.07;;;16.50;99.80;;;;;;5045514;28;20037;-40
2022/05/17 02:09:54;;;;;;;6.88;4.28;;;16.50;99.90;;;;;;5047040;28;20439;-40
2022/05/17 02:12:20;;;;;;;9.68;4.63;;;16.50;99.90;;;;;;5046375;28;20021;-40
2022/05/17 02:14:46;;;;;;;7.32;4.13;;;16.50;99.90;;;;;;5045590;28;20542;-40
2022/05/17 02:17:11;;;;;;;5.15;3.42;;;16.50;99.90;;;;;;5047028;28;20059;-40
2022/05/17 02:19:37;;;;;;;7.13;3.83;;;16.50;99.90;;;;;;5045353;28;20040;-40
2022/05/17 02:22:03;;;;;;;7.40;3.90;;;16.50;99.90;;;;;;5045806;28;20028;-40
2022/05/17 02:24:28;;;;;;;5.47;3.60;;;16.50;99.90;;;;;;5045887;28;20017;-40
2022/05/17 02:26:55;;;;;;;6.95;3.88;;;16.50;99.90;;;;;;5046094;28;20064;-40
2022/05/17 02:29:21;;;;;;;5.63;3.55;;;16.50;99.90;;;;;;5045280;28;20032;-40
2022/05/17 02:31:47;;;;;;;5.95;3.75;;;16.50;99.90;;;;;;5046214;28;20025;-40
2022/05/17 02:34:12;;;;;;;7.85;4.15;;;16.50;99.90;;;;;;5045593;28;20482;-40
2022/05/17 02:36:38;;;;;;;6.68;3.65;;;16.50;99.90;;;;;;5044723;28;20021;-40
2022/05/17 02:39:04;;;;;;;7.68;3.45;;;16.50;99.90;;;;;;5045731;28;20033;-41
2022/05/17 02:41:30;;;;;;;7.43;3.80;;;16.40;99.90;;;;;;5045432;28;20479;-40
2022/05/17 02:43:55;;;;;;;8.60;3.88;;;16.40;99.90;;;;;;5045252;28;20024;-40
2022/05/17 02:46:21;;;;;;;7.30;3.72;;;16.40;99.90;;;;;;5046017;28;20657;-40
2022/05/17 02:48:46;;;;;;;4.55;3.35;;;16.40;99.90;;;;;;5045203;28;20062;-41
2022/05/17 02:51:18;;;;;;;7.03;4.10;;;16.40;99.90;;;;;;5046356;28;20119;-40
2022/05/17 02:53:43;;;;;;;7.97;3.88;;;16.40;99.90;;;;;;5045574;28;20028;-40
2022/05/17 02:56:09;;;;;;;6.28;4.10;;;16.40;99.90;;;;;;5045479;28;20031;-41
2022/05/17 02:58:37;;;;;;;6.22;3.53;;;16.40;99.90;;;;;;5045173;28;20139;-40
2022/05/17 03:01:03;;;;;;;7.53;4.30;;;16.40;99.90;;;;;;5045737;28;20128;-41
2022/05/17 03:03:28;;;;;;;5.50;3.50;;;16.30;99.90;;;;;;5044572;28;20021;-40
2022/05/17 03:05:54;;;;;;;5.95;3.10;;;16.30;99.90;;;;;;5045641;28;20029;-40
2022/05/17 03:08:20;;;;;;;4.60;3.20;;;16.30;99.90;;;;;;5045471;28;20028;-40
2022/05/17 03:10:45;;;;;;;5.10;3.30;;;16.20;99.90;;;;;;5044291;28;20461;-42
2022/05/17 03:13:13;;;;;;;8.13;3.45;;;16.20;99.90;;;;;;5046225;28;20037;-41
2022/05/17 03:15:38;;;;;;;5.70;3.60;;;16.10;99.90;;;;;;5045347;28;20024;-40
2022/05/17 03:18:04;;;;;;;7.00;3.60;;;16.10;99.90;;;;;;5045123;28;20029;-41
2022/05/17 03:20:31;;;;;;;5.53;3.55;;;16.10;99.90;;;;;;5045178;28;20037;-41
2022/05/17 03:22:56;;;;;;;4.40;2.85;;;16.10;99.90;;;;;;5045350;28;20530;-40
2022/05/17 03:25:23;;;;;;;5.85;2.80;;;16.10;99.90;;;;;;5044628;28;20028;-42
2022/05/17 03:27:50;;;;;;;5.90;3.42;;;16.00;99.90;;;;;;5046377;28;20029;-38
2022/05/17 03:30:16;;;;;;;6.97;3.53;;;15.90;99.90;;;;;;5045483;28;20017;-40
2022/05/17 03:32:41;;;;;;;6.68;3.63;;;15.90;99.90;;;;;;5044930;28;20029;-41
2022/05/17 03:35:08;;;;;;;7.53;3.75;;;15.90;99.90;;;;;;5044900;28;20061;-40
2022/05/17 03:37:33;;;;;;;8.50;4.32;;;16.00;99.90;;;;;;5044487;28;20029;-39
2022/05/17 03:39:59;;;;;;;7.68;3.83;;;16.00;99.90;;;;;;5045166;28;20037;-37
2022/05/17 03:42:24;;;;;;;9.48;3.78;;;16.00;99.90;;;;;;5044605;28;20026;-40
2022/05/17 03:44:50;;;;;;;5.20;3.30;;;16.00;99.90;;;;;;5045040;28;20537;-40
2022/05/17 03:47:16;;;;;;;7.05;3.58;;;16.00;99.90;;;;;;5044674;28;20041;-40
2022/05/17 03:49:41;;;;;;;9.02;3.80;;;16.00;99.90;;;;;;5047689;28;20537;-40
2022/05/17 03:52:08;;;;;;;6.93;3.55;;;16.00;99.90;;;;;;5049340;28;20108;-40
2022/05/17 03:54:36;;;;;;;6.88;3.63;;;16.00;99.90;;;;;;5049012;28;20098;-40
2022/05/17 03:57:02;;;;;;;6.25;3.80;;;16.00;99.90;;;;;;5049135;28;20490;-37
2022/05/17 03:59:28;;;;;;;5.78;3.50;;;16.00;99.90;;;;;;5047674;28;20044;-39
2022/05/17 04:01:53;;;;;;;5.88;3.40;;;16.10;99.90;;;;;;5049163;28;20098;-40
2022/05/17 04:04:19;;;;;;;6.90;3.10;;;16.10;99.90;;;;;;5049139;28;20029;-40
2022/05/17 04:06:46;;;;;;;7.18;3.40;;;16.20;99.90;;;;;;5048383;28;20847;-40
2022/05/17 04:09:12;;;;;;;6.47;3.83;;;16.20;99.90;;;;;;5049550;28;20174;-40
2022/05/17 04:11:38;;;;;;;5.32;3.15;;;16.30;99.90;;;;;;5048764;28;20139;-39
2022/05/17 04:14:03;;;;;;;5.82;3.45;;;16.30;99.90;;;;;;5048338;28;20048;-40
2022/05/17 04:16:34;;;;;;;6.82;3.35;;;16.30;99.90;;;;;;5048653;28;20056;-39
2022/05/17 04:19:00;;;;;;;4.97;3.47;;;16.30;99.90;;;;;;5045938;28;20032;-40
2022/05/17 04:21:28;;;;;;;5.30;3.50;;;16.40;99.90;;;;;;5047679;28;20447;-39
2022/05/17 04:23:54;;;;;;;7.00;3.72;;;16.40;99.90;;;;;;5048827;28;20053;-40
2022/05/17 04:26:19;;;;;;;5.55;3.50;;;16.40;99.90;;;;;;5049155;28;20053;-39
2022/05/17 04:28:46;;;;;;;5.90;3.33;;;16.50;99.90;;;;;;5048139;28;20025;-40
2022/05/17 04:31:12;;;;;;;7.57;3.80;;;16.50;99.90;;;;;;5049423;28;20400;-36
2022/05/17 04:33:37;;;;;;;8.40;3.60;;;16.60;99.90;;;;;;5047980;28;20021;-38
2022/05/17 04:36:04;;;;;;;5.32;3.25;;;16.60;99.90;;;;;;5047885;28;20037;-40
2022/05/17 04:38:30;;;;;;;5.35;3.30;;;16.60;99.90;;;;;;5048288;28;20064;-38
2022/05/17 04:40:55;;;;;;;5.65;3.10;;;16.70;99.90;;;;;;5048599;28;20060;-37
2022/05/17 04:43:21;;;;;;;4.90;3.40;;;16.70;99.90;;;;;;5047290;28;20028;-39
2022/05/17 04:45:46;;;;;;;5.05;3.20;;;16.70;99.90;;;;;;5048427;28;20108;-41
2022/05/17 04:48:12;;;;;;;6.65;3.33;;;16.70;99.90;;;;;;5047034;28;20082;-38
2022/05/17 04:50:38;;;;;;;7.55;3.60;;;16.70;99.90;;;;;;5048155;28;20069;-41
2022/05/17 04:53:03;;;;;;;5.82;3.50;;;16.70;99.90;;;;;;5048554;28;20032;-39
2022/05/17 04:55:29;;;;;;;7.53;3.70;;;16.80;99.90;;;;;;5047303;28;20025;-41
2022/05/17 04:57:55;;;;;;;6.00;3.92;;;16.80;99.90;;;;;;5048232;28;20056;-43
2022/05/17 05:00:23;;;;;;;6.32;3.70;;;16.80;99.90;;;;;;5046102;28;20906;-40
2022/05/17 05:02:50;;;;;;;5.10;4.00;;;16.80;99.90;;;;;;5047455;28;20033;-41
2022/05/17 05:05:17;;;;;;;7.20;4.43;;;16.90;99.90;;;;;;5047336;28;20025;-40
2022/05/17 05:07:43;;;;;;;7.47;4.22;;;16.90;99.90;;;;;;5048159;28;20055;-39
2022/05/17 05:10:09;;;;;;;5.25;4.03;;;17.00;99.90;;;;;;5047057;28;20563;-41
2022/05/17 05:12:35;;;;;;;5.43;3.90;;;17.00;99.90;;;;;;5046844;28;20079;-40
2022/05/17 05:15:01;;;;;;;5.25;4.03;;;17.00;99.90;;;;;;5047796;28;20059;-38
2022/05/17 05:17:34;;;;;;;5.07;3.58;;;17.00;99.90;;;;;;5047336;28;20579;-41
2022/05/17 05:20:00;;;;;;;5.15;3.80;;;17.10;99.90;;;;;;5047537;28;20029;-41
2022/05/17 05:22:26;;;;;;;6.22;4.00;;;17.20;99.90;;;;;;5046895;28;20036;-40
2022/05/17 05:24:51;;;;;;;5.55;4.00;;;17.20;99.90;;;;;;5046599;28;20017;-40
2022/05/17 05:27:17;;;;;;;10.35;5.90;;;17.20;99.90;;;;;;5047401;28;20381;-40
2022/05/17 05:29:43;;;;;;;8.68;5.63;;;17.30;99.90;;;;;;5047169;28;20024;-41
2022/05/17 05:32:09;;;;;;;4.50;4.00;;;17.30;99.90;;;;;;5047030;28;20037;-41
2022/05/17 05:34:34;;;;;;;6.28;4.57;;;17.40;99.90;;;;;;5047003;28;20021;-41
2022/05/17 05:37:03;;;;;;;8.95;5.43;;;17.40;99.90;;;;;;5048122;28;20028;-41
2022/05/17 05:39:29;;;;;;;8.68;4.50;;;17.40;99.90;;;;;;5046418;28;20353;-41
2022/05/17 05:41:55;;;;;;;6.18;3.92;;;17.50;99.90;;;;;;5047690;28;20048;-39
2022/05/17 05:44:21;;;;;;;7.88;4.10;;;17.50;99.90;;;;;;5047240;28;20025;-40
2022/05/17 05:46:46;;;;;;;6.03;4.10;;;17.60;99.90;;;;;;5046419;28;20480;-40
2022/05/17 05:49:12;;;;;;;5.90;4.13;;;17.60;99.90;;;;;;5038068;28;20029;-39
2022/05/17 05:51:37;;;;;;;6.10;4.40;;;17.60;99.90;;;;;;5043715;28;20039;-40
2022/05/17 05:54:03;;;;;;;5.07;4.07;;;17.60;99.90;;;;;;5058582;28;20025;-40
2022/05/17 05:56:29;;;;;;;6.38;3.78;;;17.60;99.90;;;;;;5049585;28;20048;-40
2022/05/17 05:58:55;;;;;;;7.97;4.30;;;17.70;99.90;;;;;;5044746;28;20397;-40
2022/05/17 06:01:21;;;;;;;7.13;4.10;;;17.70;99.90;;;;;;5045477;28;20040;-40
2022/05/17 06:03:46;;;;;;;8.27;4.32;;;17.70;99.90;;;;;;5045869;28;20560;-39
2022/05/17 06:06:12;;;;;;;7.78;4.10;;;17.70;99.90;;;;;;5045441;28;20087;-41
2022/05/17 06:08:38;;;;;;;5.35;3.72;;;17.80;99.90;;;;;;5045417;28;20548;-40
2022/05/17 06:11:04;;;;;;;5.93;3.85;;;17.80;99.90;;;;;;5046197;28;20491;-40
2022/05/17 06:13:30;;;;;;;4.95;3.53;;;17.80;99.90;;;;;;5044782;28;20020;-40
2022/05/17 06:15:55;;;;;;;5.63;4.30;;;17.80;99.90;;;;;;5045796;28;20025;-40
2022/05/17 06:18:21;;;;;;;4.90;3.38;;;17.90;99.90;;;;;;5045391;28;20136;-41
2022/05/17 06:20:52;;;;;;;5.53;3.75;;;17.90;99.90;;;;;;5044734;28;20174;-39
2022/05/17 06:23:19;;;;;;;5.93;3.83;;;18.00;99.90;;;;;;5044655;28;20032;-40
2022/05/17 06:25:45;;;;;;;6.68;3.72;;;18.10;99.90;;;;;;5045583;28;20047;-40
2022/05/17 06:28:10;;;;;;;5.55;2.80;;;18.10;99.90;;;;;;5044673;28;20021;-39
2022/05/17 06:30:37;;;;;;;4.28;2.47;;;18.20;99.90;;;;;;5045330;28;20029;-40
2022/05/17 06:33:06;;;;;;;4.72;2.08;;;18.30;99.90;;;;;;5045306;28;20029;-40
2022/05/17 06:35:31;;;;;;;3.45;2.42;;;18.40;99.90;;;;;;5044031;28;20033;-39
2022/05/17 06:37:57;;;;;;;5.82;2.92;;;18.60;99.90;;;;;;5045292;28;20036;-40
2022/05/17 06:40:22;;;;;;;7.40;4.25;;;18.80;99.90;;;;;;5044099;28;20089;-41
2022/05/17 06:42:48;;;;;;;4.70;3.58;;;18.90;99.90;;;;;;5044885;28;20291;-39
2022/05/17 06:45:13;;;;;;;5.05;3.38;;;19.00;99.90;;;;;;5046126;28;20028;-40
2022/05/17 06:47:40;;;;;;;4.82;3.67;;;19.10;99.90;;;;;;5045736;28;20143;-40
2022/05/17 06:50:07;;;;;;;3.63;2.83;;;19.20;99.90;;;;;;5045060;28;20076;-40
2022/05/17 06:52:32;;;;;;;2.88;2.10;;;19.20;99.90;;;;;;5044912;28;20624;-40
2022/05/17 06:54:58;;;;;;;4.93;2.95;;;19.20;99.90;;;;;;5045329;28;20481;-40
2022/05/17 06:57:24;;;;;;;6.07;4.22;;;19.30;99.90;;;;;;5045278;28;20109;-42
2022/05/17 06:59:49;;;;;;;4.55;3.30;;;19.40;99.90;;;;;;5045590;28;20103;-40
2022/05/17 07:02:15;;;;;;;8.48;3.30;;;19.50;99.70;;;;;;5044721;28;20113;-41
2022/05/17 07:04:41;;;;;;;3.67;2.90;;;19.60;99.60;;;;;;5042946;28;20017;-40
2022/05/17 07:07:08;;;;;;;4.45;2.50;;;19.60;99.50;;;;;;5043220;28;20032;-39
2022/05/17 07:09:35;;;;;;;6.82;2.83;;;19.70;99.50;;;;;;5042638;28;20059;-40
2022/05/17 07:14:45;;;;;;;4.72;2.72;;;19.70;99.50;;;;;;5044139;28;20179;-41
2022/05/17 07:17:13;;;;;;;4.30;2.67;;;19.80;99.50;;;;;;5045090;28;20124;-41
2022/05/17 07:19:39;;;;;;;5.30;3.22;;;19.80;99.50;;;;;;5045052;28;20363;-41
2022/05/17 07:22:05;;;;;;;5.72;2.45;;;19.80;99.40;;;;;;5045890;28;20408;-40
2022/05/17 07:24:32;;;;;;;5.95;2.45;;;19.70;99.40;;;;;;5044104;28;20040;-41
2022/05/17 07:26:59;;;;;;;4.28;2.63;;;19.60;99.40;;;;;;5045652;28;20031;-41
2022/05/17 07:29:25;;;;;;;4.70;2.72;;;19.60;99.50;;;;;;5044444;28;20064;-40
2022/05/17 07:31:51;;;;;;;6.05;3.38;;;19.50;99.50;;;;;;5044873;28;20076;-41
2022/05/17 07:34:17;;;;;;;5.70;3.22;;;19.50;99.60;;;;;;5044635;28;20059;-40
2022/05/17 07:36:44;;;;;;;5.43;3.55;;;19.50;99.60;;;;;;5044667;28;20029;-41
2022/05/17 07:39:09;;;;;;;7.30;3.45;;;19.50;99.60;;;;;;5044440;28;20024;-42
2022/05/17 07:41:35;;;;;;;5.68;2.97;;;19.60;99.60;;;;;;5045138;28;20380;-41
2022/05/17 07:44:04;;;;;;;4.53;3.10;;;19.60;99.60;;;;;;5044596;28;20013;-41
2022/05/17 07:46:31;;;;;;;5.43;2.92;;;19.60;99.50;;;;;;5045454;28;20044;-39
2022/05/17 07:48:56;;;;;;;6.03;3.20;;;19.50;99.50;;;;;;5044619;28;20099;-42
2022/05/17 07:51:24;;;;;;;3.80;2.58;;;19.50;99.50;;;;;;5044956;28;20416;-41
2022/05/17 07:53:50;;;;;;;5.13;3.40;;;19.50;99.50;;;;;;5045411;28;20028;-39
2022/05/17 07:56:15;;;;;;;4.40;2.88;;;19.50;99.50;;;;;;5045273;28;20366;-40
2022/05/17 07:58:42;;;;;;;5.55;2.90;;;19.50;99.60;;;;;;5044792;28;20052;-38
2022/05/17 08:01:08;;;;;;;4.53;3.17;;;19.50;99.60;;;;;;5045450;28;20033;-40
2022/05/17 08:03:34;;;;;;;8.50;3.03;;;19.50;99.60;;;;;;5044658;28;20033;-40
2022/05/17 08:06:00;;;;;;;5.35;2.95;;;19.40;99.60;;;;;;5044113;28;20028;-40
2022/05/17 08:08:25;;;;;;;4.57;3.20;;;19.40;99.60;;;;;;5044259;28;20029;-40
2022/05/17 08:10:51;;;;;;;3.85;3.08;;;19.40;99.60;;;;;;5044805;28;20029;-40
2022/05/17 08:13:18;;;;;;;7.18;3.40;;;19.40;99.60;;;;;;5044149;28;20156;-40
2022/05/17 08:15:44;;;;;;;4.25;3.28;;;19.50;99.60;;;;;;5044025;28;20484;-39
2022/05/17 08:18:11;;;;;;;4.53;3.33;;;19.50;99.60;;;;;;5045098;28;20032;-40
2022/05/17 08:20:37;;;;;;;4.63;3.10;;;19.50;99.50;;;;;;5044157;28;20039;-39
2022/05/17 08:23:04;;;;;;;3.80;2.88;;;19.60;99.40;;;;;;5045792;28;20029;-40
2022/05/17 08:28:14;;;;;;;6.07;3.03;;;19.60;99.30;;;;;;5044547;28;20040;-40
2022/05/17 08:30:44;;;;;;;6.38;3.03;;;19.70;99.30;;;;;;5045076;28;20029;-40
2022/05/17 08:33:14;;;;;;;4.05;3.17;;;19.70;99.30;;;;;;5045220;28;20473;-41
2022/05/17 08:35:47;;;;;;;4.60;3.35;;;19.80;99.20;;;;;;5044007;28;20101;-38
2022/05/17 08:38:17;;;;;;;5.40;3.17;;;19.80;99.20;;;;;;5048719;28;20132;-41
2022/05/17 08:41:05;;;;;;;5.07;3.00;;;19.90;99.20;;;;;;5047060;28;20164;-40
2022/05/17 08:44:03;;;;;;;3.33;2.70;;;20.00;99.20;;;;;;5039257;28;20024;-40
2022/05/17 08:46:49;;;;;;;3.70;2.72;;;20.10;99.10;;;;;;5024527;28;20039;-37
2022/05/17 08:49:38;;;;;;;4.18;2.95;;;20.10;99.00;;;;;;5047111;28;20033;-39
2022/05/17 08:52:07;;;;;;;6.85;2.85;;;20.10;98.90;;;;;;5047241;28;20060;-40
2022/05/17 08:54:36;;;;;;;4.53;2.45;;;20.10;98.80;;;;;;5046721;28;20032;-39
2022/05/17 08:57:41;;;;;;;3.75;2.67;;;20.10;98.80;;;;;;5048315;28;20025;-41
2022/05/17 09:00:18;;;;;;;5.88;2.40;;;20.10;98.80;;;;;;5010177;28;20575;-41
2022/05/17 09:03:00;;;;;;;3.80;2.42;;;20.20;98.70;;;;;;5043129;28;20935;-41
2022/05/17 09:05:39;;;;;;;4.55;2.33;;;20.30;98.50;;;;;;5027010;28;20504;-41
2022/05/17 09:08:32;;;;;;;6.68;2.35;;;20.40;98.30;;;;;;5045287;28;20063;-39
2022/05/17 09:11:21;;;;;;;5.72;2.30;;;20.40;98.50;;;;;;5048050;28;20021;-41
2022/05/17 09:14:09;;;;;;;5.25;1.90;;;20.40;98.20;;;;;;5043808;28;20031;-42
2022/05/17 09:16:45;;;;;;;3.67;1.90;;;20.50;98.10;;;;;;5028489;28;20052;-41
2022/05/17 09:19:11;;;;;;;4.03;1.70;;;20.60;98.00;;;;;;5048255;28;20029;-41
2022/05/17 09:21:40;;;;;;;5.15;2.10;;;20.70;97.90;;;;;;5047984;28;20083;-39
2022/05/17 09:24:12;;;;;;;3.55;2.13;;;20.80;97.60;;;;;;5047063;28;20021;-41
2022/05/17 09:26:40;;;;;;;3.47;2.45;;;20.90;97.50;;;;;;5047198;28;20033;-39
2022/05/17 09:29:26;;;;;;;4.35;2.13;;;20.90;97.50;;;;;;5047433;28;20013;-42
2022/05/17 09:31:59;;;;;;;5.15;2.90;;;21.10;97.40;;;;;;5046607;28;20660;-41
2022/05/17 09:34:33;;;;;;;4.60;1.90;;;21.10;97.40;;;;;;5046488;28;20032;-39
2022/05/17 09:37:10;;;;;;;5.30;1.83;;;21.20;97.20;;;;;;5046482;28;20029;-40
2022/05/17 09:39:35;;;;;;;3.65;1.40;;;21.20;97.10;;;;;;5046690;28;20028;-40
2022/05/17 09:42:04;;;;;;;4.03;1.52;;;21.30;97.00;;;;;;5047641;28;20044;-41
2022/05/17 09:44:33;;;;;;;4.63;1.80;;;21.40;96.90;;;;;;5045766;28;20068;-41
2022/05/17 09:47:02;;;;;;;4.05;2.08;;;21.40;96.70;;;;;;5047652;28;20454;-39
2022/05/17 09:52:35;;;;;;;5.85;2.22;;;21.40;96.70;;;;;;5045772;28;20797;-41
2022/05/17 09:55:12;;;;;;;3.25;1.92;;;21.40;96.60;;;;;;5045991;28;20017;-40
2022/05/17 09:57:50;;;;;;;4.03;2.05;;;21.40;96.50;;;;;;5046537;28;20040;-42
2022/05/17 10:00:22;;;;;;;3.28;2.05;;;21.50;96.50;;;;;;5045306;28;20415;-41
2022/05/17 10:02:56;;;;;;;4.30;1.80;;;21.50;96.40;;;;;;5046312;28;20486;-41
2022/05/17 10:05:40;;;;;;;4.03;2.20;;;21.60;96.40;;;;;;5044682;28;20488;-41
2022/05/17 10:08:31;;;;;;;3.72;1.70;;;21.70;96.30;;;;;;5047130;28;20033;-41
2022/05/17 10:11:13;;;;;;;2.88;1.55;;;21.90;96.10;;;;;;5045053;28;20483;-41
2022/05/17 10:14:07;;;;;;;2.50;1.30;;;22.10;96.00;;;;;;5046462;28;20036;-43
2022/05/17 10:16:45;;;;;;;3.47;1.50;;;22.20;95.80;;;;;;5045334;28;20033;-41
2022/05/17 10:19:31;;;;;;;3.88;1.85;;;22.40;95.60;;;;;;5044513;28;20100;-40
2022/05/17 10:22:11;;;;;;;3.00;1.70;;;22.50;95.30;;;;;;5044982;28;20048;-40
2022/05/17 10:25:12;;;;;;;3.22;1.50;;;22.60;95.20;;;;;;5045001;28;20021;-39
2022/05/17 10:27:43;;;;;;;4.43;1.52;;;22.70;95.10;;;;;;5044607;28;20037;-39
2022/05/17 10:30:20;;;;;;;5.13;2.08;;;22.80;95.10;;;;;;5045987;28;20021;-36
2022/05/17 10:32:54;;;;;;;4.32;1.70;;;22.80;94.90;;;;;;5042085;28;20041;-41
2022/05/17 10:35:37;;;;;;;5.18;2.00;;;22.80;94.80;;;;;;5045120;28;20036;-39
2022/05/17 10:38:11;;;;;;;4.63;2.17;;;22.70;94.70;;;;;;5044842;28;20032;-40
2022/05/17 10:40:43;;;;;;;3.50;2.08;;;22.70;94.80;;;;;;5043873;28;20341;-42
2022/05/17 10:43:20;;;;;;;4.32;1.52;;;22.60;94.70;;;;;;5045189;28;20139;-42
2022/05/17 10:45:49;;;;;;;4.63;1.90;;;22.60;94.80;;;;;;5045209;28;20036;-42
2022/05/17 10:48:23;;;;;;;4.47;1.98;;;22.50;94.60;;;;;;5043888;28;20024;-40
2022/05/17 10:50:57;;;;;;;2.55;1.52;;;22.50;94.50;;;;;;5045699;28;20025;-40
2022/05/17 10:53:39;;;;;;;5.72;2.13;;;22.50;94.40;;;;;;5043146;28;20044;-39
2022/05/17 10:56:04;;;;;;;4.10;1.75;;;22.60;94.40;;;;;;5045332;28;20151;-35
2022/05/17 10:59:08;;;;;;;5.00;1.90;;;22.70;94.30;;;;;;5045034;28;20111;-43
2022/05/17 11:01:58;;;;;;;3.78;2.25;;;22.80;94.10;;;;;;5044813;28;20041;-41
2022/05/17 11:04:29;;;;;;;4.55;1.88;;;22.90;93.80;;;;;;5025793;28;20047;-39
2022/05/17 11:07:23;;;;;;;4.78;2.10;;;22.90;93.80;;;;;;5041564;28;20472;-40
2022/05/17 11:10:02;;;;;;;4.80;2.15;;;22.90;93.70;;;;;;5025193;28;20029;-42
2022/05/17 11:12:34;;;;;;;6.18;1.85;;;22.90;93.60;;;;;;5044144;28;20127;-40
2022/05/17 11:15:10;;;;;;;5.22;2.40;;;23.00;93.60;;;;;;5044585;28;20041;-42
2022/05/17 11:17:57;;;;;;;3.67;1.92;;;23.00;93.60;;;;;;5044558;28;20117;-41
2022/05/17 11:20:38;;;;;;;3.72;1.90;;;23.10;93.60;;;;;;5046007;28;20068;-41
2022/05/17 11:23:20;;;;;;;6.75;1.67;;;23.20;93.50;;;;;;5044816;28;20028;-41
2022/05/17 11:25:48;;;;;;;2.23;1.50;;;23.30;93.40;;;;;;5045279;28;20025;-40
2022/05/17 11:28:52;;;;;;;3.20;2.03;;;23.50;93.30;;;;;;5045284;28;20071;-41
2022/05/17 11:31:20;;;;;;;3.53;1.48;;;23.60;93.00;;;;;;5044244;28;20058;-40
2022/05/17 11:33:46;;;;;;;3.75;1.90;;;23.80;93.00;;;;;;5045534;28;20824;-41
2022/05/17 11:36:32;;;;;;;4.97;1.90;;;23.80;92.60;;;;;;5044578;28;20135;-42
2022/05/17 11:38:59;;;;;;;3.83;1.90;;;23.90;92.40;;;;;;5044581;28;20086;-39
2022/05/17 11:41:48;;;;;;;3.90;1.90;;;24.00;92.40;;;;;;5044374;28;20742;-42
2022/05/17 11:44:26;;;;;;;5.28;2.25;;;24.10;92.20;;;;;;5033146;28;20136;-40
2022/05/17 11:46:57;;;;;;;4.78;2.45;;;24.10;92.20;;;;;;5045271;28;20025;-40
2022/05/17 11:49:25;;;;;;;3.33;2.17;;;24.10;92.20;;;;;;5045611;28;20095;-39
2022/05/17 11:51:59;;;;;;;3.58;1.88;;;24.00;92.20;;;;;;5044936;28;20033;-41
2022/05/17 11:54:46;;;;;;;3.75;1.58;;;24.00;92.10;;;;;;5044535;28;20195;-41
2022/05/17 11:57:18;;;;;;;3.08;1.70;;;24.10;92.10;;;;;;5044723;28;20021;-41
2022/05/17 11:59:52;;;;;;;3.47;1.70;;;24.20;92.00;;;;;;5044463;28;20069;-42
2022/05/17 12:02:18;;;;;;;3.20;1.60;;;24.30;91.90;;;;;;5044631;28;20374;-40
2022/05/17 12:04:46;;;;;;;4.10;1.58;;;24.40;91.80;;;;;;5044418;28;20485;-39
2022/05/17 12:07:25;;;;;;;3.38;1.65;;;24.50;91.70;;;;;;5045136;28;20468;-38
2022/05/17 12:09:55;;;;;;;3.25;1.70;;;24.50;91.50;;;;;;5044663;28;20028;-40
2022/05/17 12:13:07;;;;;;;2.55;1.55;;;24.50;91.50;;;;;;5049417;28;20488;-40
2022/05/17 12:15:38;;;;;;;2.75;1.75;;;24.60;91.40;;;;;;5004362;28;20489;-42
2022/05/17 12:18:10;;;;;;;4.35;1.73;;;24.60;91.40;;;;;;5032016;28;20086;-40
2022/05/17 12:20:49;;;;;;;2.63;1.55;;;24.60;91.30;;;;;;5048696;28;20072;-41
2022/05/17 12:23:44;;;;;;;3.03;1.63;;;24.60;91.20;;;;;;5048257;28;20797;-41
2022/05/17 12:26:32;;;;;;;3.38;1.73;;;24.60;91.20;;;;;;5048755;28;20388;-42
2022/05/17 12:30:52;;;;;;;4.43;2.55;;;24.60;91.20;;;;;;5049595;28;20029;-39
2022/05/17 12:31:43;;;;;;;3.42;2.10;;;24.60;91.20;;;;;;5045422;28;20671;-41
2022/05/17 12:34:08;;;;;;;3.55;1.77;;;24.40;91.20;;;;;;5046489;28;20045;-42
2022/05/17 12:36:35;;;;;;;3.15;1.73;;;24.30;91.30;;;;;;5046163;28;20577;-40
2022/05/17 12:44:55;;;;;;;4.13;2.40;;;24.20;91.50;;;;;;5047071;28;20044;-41
2022/05/17 12:47:28;;;;;;;;;;;24.10;91.50;;;;;;5047732;28;20028;-42
2022/05/17 12:49:56;;;;;;;3.05;1.52;;;24.10;91.50;;;;;;5048274;28;19912;-42
2022/05/17 12:52:35;;;;;;;3.67;2.40;;;24.10;91.60;;;;;;5047746;28;20389;-42
2022/05/17 12:55:16;;;;;;;5.05;1.85;;;24.10;91.60;;;;;;5047200;28;20052;-40
2022/05/17 12:57:42;;;;;;;4.13;2.15;;;24.10;91.60;;;;;;5047073;28;20025;-41
2022/05/17 13:00:29;;;;;;;2.33;1.80;;;24.10;91.50;;;;;;5047774;28;20060;-42
2022/05/17 13:03:15;;;;;;;2.53;1.83;;;24.10;91.60;;;;;;5047989;28;20029;-40
2022/05/17 13:05:48;;;;;;;2.95;1.90;;;24.10;91.60;;;;;;5047141;28;20123;-40
2022/05/17 13:08:19;;;;;;;3.75;1.98;;;24.10;91.60;;;;;;5046364;28;20108;-40
2022/05/17 13:10:57;;;;;;;2.40;1.73;;;24.10;91.60;;;;;;5048288;28;20473;-40
2022/05/17 13:13:27;;;;;;;1.88;1.42;;;24.10;91.60;;;;;;5049331;28;20033;-40
2022/05/17 13:15:57;;;;;;;3.72;1.55;;;24.10;91.50;;;;;;5048066;28;20029;-42
2022/05/17 13:18:27;;;;;;;2.10;1.35;;;24.10;91.50;;;;;;5047284;28;20520;-41
2022/05/17 13:20:55;;;;;;;4.78;1.90;;;24.10;91.50;;;;;;5047025;28;20037;-41